Date,TemperatureHighF,TemperatureAvgF,TemperatureLowF,DewpointHighF,DewpointAvgF,DewpointLowF,HumidityHigh,HumidityAvg,HumidityLow,PressureMaxIn,PressureMinIn,WindSpeedMaxMPH,WindSpeedAvgMPH,GustSpeedMaxMPH,PrecipitationSumIn
2014-1-1,46.1,31.6,22.8,29.8,24.8,21.3,98,78,40,30.36,30.09,0,0,1,0.00
2014-1-2,38.8,31.8,21.5,38.8,29.6,12.9,100,92,69,30.15,29.74,3,0,7,0.08
2014-1-3,27.5,20.2,14.5,13.6,9.2,6.0,82,62,42,30.47,30.15,3,0,5,0.00
2014-1-4,39.0,21.1,14.0,19.0,14.3,11.4,93,77,41,30.40,30.25,0,0,1,0.00
2014-1-5,59.8,41.5,23.8,51.1,33.7,21.3,94,75,58,30.15,29.55,4,0,9,0.14
2014-1-6,45.0,17.7,4.6,41.7,11.0,-6.3,96,75,52,30.47,29.68,4,1,13,0.03
2014-1-7,16.4,7.5,-0.3,5.1,-2.1,-7.5,82,65,46,30.65,30.47,1,0,6,0.00
2014-1-8,34.2,18.6,6.2,19.1,10.2,2.4,88,71,43,30.62,30.47,1,0,2,0.03
2014-1-9,46.6,30.1,20.2,28.4,22.6,18.0,94,76,40,30.53,30.32,0,0,1,0.00
2014-1-10,51.5,40.6,33.3,45.3,38.4,28.2,100,92,79,30.32,29.93,0,0,2,0.18
2014-1-11,60.4,50.2,41.2,55.8,44.2,34.2,100,82,46,29.92,29.57,3,0,10,0.06
2014-1-12,57.2,43.4,32.8,35.8,32.1,27.2,89,67,32,30.12,29.88,1,0,6,0.00
2014-1-13,44.4,37.0,28.7,40.1,33.6,27.7,99,88,67,30.09,29.83,0,0,1,0.02
2014-1-14,54.3,44.0,34.2,45.7,37.1,29.8,100,80,42,29.95,29.77,1,0,5,0.25
2014-1-15,43.1,36.0,27.1,34.6,28.2,17.1,98,74,53,30.07,29.87,1,0,7,0.03
2014-1-16,42.0,30.6,20.2,23.9,17.2,8.0,91,61,25,30.08,29.86,1,0,3,0.00
2014-1-17,45.1,34.8,26.0,28.4,22.7,10.9,89,62,45,30.06,29.81,3,1,11,0.00
2014-1-18,37.5,28.6,20.9,19.5,12.4,8.4,70,51,31,30.16,29.91,2,0,10,0.00
2014-1-19,45.9,37.5,28.0,27.3,24.2,17.7,77,59,46,30.03,29.86,2,0,7,0.00
2014-1-20,59.5,43.5,29.7,28.3,24.2,19.3,77,49,27,29.95,29.79,2,0,4,0.00
2014-1-21,50.4,35.7,17.4,32.5,23.3,8.3,79,61,43,30.07,29.62,3,1,6,0.00
2014-1-22,27.2,18.7,8.5,8.3,1.3,-7.3,76,50,22,30.18,30.05,1,0,6,0.00
2014-1-23,27.8,21.0,11.8,12.7,4.1,-6.9,72,49,27,30.59,30.18,2,0,5,0.00
2014-1-24,26.9,13.9,2.1,3.1,-1.8,-5.0,81,52,27,30.68,30.18,1,0,5,0.00
2014-1-25,38.8,27.9,9.6,19.0,8.4,-9.7,73,46,16,30.17,29.79,3,1,10,0.00
2014-1-26,56.4,38.3,19.6,28.2,20.5,12.1,79,51,31,29.95,29.74,4,0,10,0.00
2014-1-27,49.0,36.6,21.2,36.6,20.2,-0.9,88,53,27,30.25,29.73,2,0,6,0.00
2014-1-28,20.9,18.2,13.4,15.0,8.6,-0.8,86,68,39,30.32,30.25,0,0,4,0.00
2014-1-29,24.6,11.7,-1.7,9.0,0.2,-8.3,86,63,23,30.44,30.31,0,0,1,0.01
2014-1-30,34.9,15.8,0.2,13.5,4.2,-4.0,84,63,27,30.39,30.14,1,0,2,0.00
2014-1-31,46.9,28.3,13.9,21.5,16.0,10.8,90,64,28,30.26,30.13,1,0,1,0.00
2014-2-1,60.9,38.9,22.4,40.5,25.4,19.3,91,64,26,30.17,29.99,1,0,2,0.00
2014-2-2,47.9,40.2,29.3,47.1,38.7,28.3,100,94,78,30.09,29.89,0,0,3,0.04
2014-2-3,45.1,40.2,36.1,45.1,38.9,33.3,100,95,82,30.21,29.79,2,0,5,0.01
2014-2-4,53.7,42.7,35.5,43.8,37.5,32.5,91,82,64,30.21,29.82,1,0,3,0.00
2014-2-5,49.0,41.1,27.8,49.0,36.8,19.3,100,85,70,30.30,29.72,3,1,6,0.00
2014-2-6,33.3,29.4,26.8,27.1,21.8,18.3,93,73,61,30.39,30.29,1,0,2,0.00
2014-2-7,39.1,31.3,27.5,27.1,23.8,21.7,92,74,54,30.39,30.24,1,0,1,0.00
2014-2-8,42.0,36.0,31.4,34.0,30.1,26.6,89,79,66,30.25,30.12,0,0,1,0.00
2014-2-9,47.5,40.3,33.9,37.6,34.8,31.3,93,81,66,30.16,30.02,1,0,3,0.00
2014-2-10,38.4,35.2,31.4,33.4,29.0,23.4,89,78,67,30.23,30.09,0,0,3,0.00
2014-2-11,43.8,33.1,27.5,24.6,21.3,18.0,81,63,38,30.30,30.20,1,0,2,0.00
2014-2-12,36.8,30.8,27.7,31.1,25.3,18.7,97,81,60,30.23,29.84,0,0,1,0.04
2014-2-13,39.4,31.5,26.5,34.1,28.8,25.0,97,90,77,29.83,29.73,1,0,3,0.02
2014-2-14,53.8,42.0,30.9,38.7,29.8,26.1,89,63,40,29.84,29.60,2,0,5,0.02
2014-2-15,42.0,33.3,26.8,39.4,24.3,17.1,96,70,45,30.14,29.60,2,1,8,0.00
2014-2-16,54.9,39.1,26.9,31.8,29.3,25.9,99,72,37,30.16,30.02,3,0,6,0.01
2014-2-17,60.0,42.7,28.3,48.5,32.8,26.4,99,73,35,30.21,29.90,2,0,6,0.01
2014-2-18,62.2,48.3,34.0,48.3,29.8,19.0,94,55,19,30.22,29.93,2,0,6,0.00
2014-2-19,70.3,57.6,43.8,57.1,47.8,35.7,100,73,42,30.00,29.80,4,1,4,0.05
2014-2-20,76.4,61.2,46.7,53.4,48.6,43.3,90,66,37,29.98,29.69,4,1,12,0.00
2014-2-21,71.0,66.7,57.1,55.9,52.5,50.6,95,63,49,29.71,29.64,5,3,12,0.05
2014-2-26,39.4,33.2,24.4,21.1,15.5,10.3,61,48,32,30.04,29.88,1,0,9,0.00
2014-2-27,43.2,29.7,18.8,16.7,8.6,-0.1,73,44,22,30.05,29.93,2,0,12,0.00
2014-2-28,51.5,34.1,19.1,22.4,14.2,7.0,83,49,19,30.16,30.05,1,0,2,0.00
2014-3-1,61.5,46.6,34.8,37.9,30.1,19.5,80,55,32,30.23,30.10,2,0,2,0.00
2014-3-2,71.4,56.6,45.3,51.9,45.0,37.5,90,66,49,30.14,29.84,3,0,10,0.00
2014-3-3,54.0,40.1,30.5,51.4,38.8,26.1,100,95,83,30.16,29.76,1,0,3,0.09
2014-3-4,38.4,32.3,26.2,32.6,26.5,21.0,87,79,71,30.24,30.14,0,0,4,0.00
2014-3-5,59.7,42.5,30.2,36.6,32.1,23.1,100,71,28,30.18,30.03,1,0,5,0.00
2014-3-6,54.6,44.0,32.4,33.4,25.6,16.2,93,54,23,30.14,29.95,1,0,7,0.00
2014-3-7,61.9,47.3,40.0,41.5,36.9,31.4,87,69,43,30.01,29.88,1,0,5,0.00
2014-3-8,67.7,50.9,34.8,41.5,34.4,26.9,100,61,23,30.10,29.98,3,0,4,0.00
2014-3-9,64.6,52.8,42.8,40.7,35.2,25.1,77,54,23,30.16,30.03,2,0,5,0.00
2014-3-10,68.2,51.7,37.5,44.4,37.9,29.5,82,61,37,30.07,29.83,2,0,5,0.00
2014-3-11,75.9,58.5,40.4,45.1,39.2,28.4,93,55,19,29.85,29.61,2,0,4,0.00
2014-3-12,69.3,51.4,34.3,58.0,43.9,26.2,100,76,56,29.93,29.33,6,1,11,0.07
2014-3-13,47.0,35.9,29.3,28.2,16.5,2.3,86,51,17,30.22,29.93,2,0,10,0.00
2014-3-14,66.8,45.2,26.0,30.3,22.4,14.4,83,46,20,30.25,29.97,3,0,8,0.00
2014-3-15,67.3,56.9,47.8,39.9,35.1,27.2,68,45,27,30.07,29.96,2,0,4,0.00
2014-3-16,55.6,48.9,44.5,51.3,43.8,36.4,100,83,67,29.96,29.59,2,0,5,0.01
2014-3-17,46.3,43.7,41.7,44.5,42.4,41.4,100,95,90,29.81,29.63,0,0,2,0.00
2014-3-18,60.8,48.7,40.4,46.7,41.7,36.5,95,78,53,29.94,29.80,2,0,3,0.00
2014-3-19,66.3,51.9,42.4,47.2,44.1,41.3,100,77,43,30.02,29.88,4,1,14,0.00
2014-3-20,61.5,50.6,39.7,46.8,32.0,19.1,89,54,20,30.13,29.98,2,0,10,0.00
2014-3-21,68.2,50.0,31.7,31.9,27.0,22.6,84,47,18,30.14,29.94,1,0,5,0.00
2014-3-22,72.2,55.8,40.5,43.8,36.6,29.8,79,51,28,30.00,29.92,2,0,4,0.00
2014-3-23,55.9,47.0,38.1,43.7,37.1,24.3,98,71,33,30.22,29.93,2,0,7,0.04
2014-3-24,55.5,40.6,27.2,26.9,21.7,13.4,91,52,19,30.25,29.97,1,0,7,0.00
2014-3-25,42.2,37.2,29.3,34.4,23.8,9.5,96,60,38,30.18,29.89,4,1,9,0.00
2014-3-26,48.4,34.1,23.8,21.6,11.8,5.4,69,42,18,30.35,30.19,2,0,7,0.00
2014-3-27,70.0,46.2,26.8,27.0,20.6,13.2,81,43,15,30.30,30.01,1,0,3,0.00
2014-3-28,65.9,59.4,54.4,53.6,46.7,28.1,88,64,33,30.03,29.91,1,0,3,0.00
2014-3-29,59.5,51.7,40.7,57.7,49.6,38.0,99,92,82,29.99,29.63,3,0,9,0.10
2014-3-30,60.6,45.2,36.9,37.5,31.1,23.7,89,62,26,30.17,30.00,3,0,9,0.00
2014-3-31,73.8,50.5,31.7,36.2,29.3,21.1,96,54,15,30.20,30.03,1,0,3,0.00
2014-4-1,81.7,61.4,44.2,42.7,39.0,35.4,78,49,22,30.10,29.96,3,0,6,0.00
2014-4-2,83.9,64.1,45.3,48.8,40.4,33.6,83,46,22,30.08,29.94,2,0,6,0.00
2014-4-3,82.1,69.0,58.0,62.2,54.5,37.5,100,63,36,30.03,29.79,3,1,15,0.24
2014-4-4,66.3,58.8,54.9,56.6,55.1,54.1,98,88,70,29.81,29.71,0,0,6,0.00
2014-4-5,62.5,51.0,44.0,41.6,34.6,30.1,75,55,31,30.09,29.96,1,0,7,0.01
2014-4-6,69.2,53.9,39.7,51.1,38.6,33.3,91,61,27,30.05,29.85,1,0,4,0.01
2014-4-7,74.1,58.6,48.5,57.3,52.5,45.6,100,82,50,29.92,29.47,5,1,10,0.07
2014-4-8,59.4,52.9,47.0,46.6,40.3,35.0,81,63,41,29.77,29.67,2,0,10,0.00
2014-4-9,67.2,55.0,47.3,45.6,37.6,27.9,91,57,24,30.10,29.76,2,0,9,0.01
2014-4-10,47.0,45.5,44.7,34.8,34.0,33.3,66,64,59,30.11,30.10,0,0,4,0.00
2014-4-11,77.1,62.5,47.8,50.0,41.6,34.3,83,51,22,30.14,29.99,2,1,15,0.00
2014-4-12,62.5,60.2,55.5,50.5,49.8,48.9,82,69,61,30.11,30.04,1,0,7,0.00
2014-4-13,86.2,84.0,81.0,53.4,50.7,48.1,36,32,28,30.00,29.89,1,1,4,0.00
2014-4-14,71.7,66.7,59.7,60.5,55.0,48.6,92,68,47,29.86,29.70,1,0,7,0.02
2014-4-15,60.9,45.3,35.8,58.5,40.8,24.3,99,85,57,30.15,29.59,2,0,6,0.27
2014-4-16,62.5,44.5,30.2,40.3,27.4,19.9,83,55,27,30.34,30.16,1,0,6,0.00
2014-4-17,71.7,52.1,34.3,40.1,33.9,28.1,99,58,21,30.38,30.22,1,0,3,0.00
2014-4-18,63.0,54.7,47.9,44.1,39.1,29.3,82,57,39,30.31,30.12,0,0,1,0.00
2014-4-19,67.8,56.9,51.2,54.6,45.3,35.3,91,67,31,30.14,30.06,1,0,2,0.02
2014-4-20,80.0,60.5,45.0,50.1,41.8,26.5,100,60,14,30.22,30.07,1,0,2,0.00
2014-4-21,79.5,61.8,44.4,47.6,43.0,40.1,89,55,25,30.13,29.88,1,0,4,0.00
2014-4-22,68.7,61.4,56.6,61.0,55.4,46.7,98,81,65,29.88,29.74,1,0,3,0.07
2014-4-23,71.7,57.6,44.2,57.7,38.1,26.2,99,56,19,30.00,29.80,1,0,2,0.00
2014-4-24,80.0,59.4,41.1,47.8,39.2,31.6,91,54,19,30.02,29.80,1,0,2,0.00
2014-4-25,72.4,64.2,53.4,61.1,52.3,41.3,94,66,45,29.94,29.68,3,0,6,0.22
2014-4-26,83.1,63.2,47.3,51.2,44.5,29.9,99,60,16,30.00,29.89,0,0,4,0.00
2014-4-27,85.8,66.9,49.8,62.9,51.7,45.4,94,63,29,29.96,29.80,2,0,3,0.02
2014-4-28,85.6,71.2,61.7,66.2,61.9,56.4,100,77,38,29.89,29.64,2,0,11,0.00
2014-4-29,85.8,70.9,62.0,67.0,60.6,50.6,100,74,30,29.78,29.57,2,0,3,0.32
2014-4-30,82.1,67.1,57.4,65.3,58.7,53.6,100,77,38,29.88,29.69,2,0,4,0.05
2014-5-1,68.0,58.3,51.2,57.4,46.5,38.4,100,68,35,29.96,29.85,1,0,4,0.00
2014-5-2,70.0,56.7,44.5,47.1,41.4,35.8,95,61,30,29.97,29.83,1,0,5,0.00
2014-5-3,75.7,61.5,46.0,46.8,43.2,38.2,93,55,29,29.96,29.87,1,0,6,0.00
2014-5-4,85.0,67.3,49.0,51.4,47.6,44.4,94,55,27,30.02,29.88,2,0,6,0.00
2014-5-5,86.6,73.4,58.6,55.5,50.6,45.8,78,48,27,29.94,29.78,2,0,9,0.00
2014-5-6,88.3,73.6,58.8,57.0,51.4,44.6,84,49,22,29.93,29.81,1,0,9,0.00
2014-5-7,88.5,70.9,54.7,60.2,54.6,49.6,91,60,30,30.04,29.90,1,0,5,0.00
2014-5-8,89.6,71.0,54.4,60.0,55.7,51.5,96,64,28,30.15,30.01,1,0,3,0.00
2014-5-9,77.6,67.6,61.7,65.0,61.0,55.9,100,81,48,30.04,29.98,1,0,2,0.10
2014-5-10,79.5,65.5,60.3,65.7,61.7,58.1,100,90,48,30.07,29.91,1,0,4,0.17
2014-5-11,85.4,68.7,56.4,65.2,60.8,56.4,100,80,39,30.14,30.01,1,0,4,0.01
2014-5-12,87.7,71.2,60.8,69.3,64.4,60.0,100,81,48,30.13,30.03,1,0,4,0.14
2014-5-13,85.6,70.8,63.6,72.1,66.9,63.6,100,89,51,30.10,30.03,1,0,2,0.04
2014-5-14,89.2,74.1,64.4,67.6,62.6,51.5,100,72,32,30.07,29.85,0,0,2,0.02
2014-5-15,66.0,58.8,50.6,65.4,57.6,49.5,100,96,81,30.06,29.79,1,0,10,0.26
2014-5-16,63.9,52.4,45.9,52.3,46.1,34.8,100,81,45,30.11,29.97,1,0,2,0.12
2014-5-17,61.9,52.5,44.0,48.9,44.8,39.6,92,76,57,30.20,30.09,1,0,7,0.00
2014-5-18,70.3,57.9,49.8,50.7,49.0,46.4,98,75,43,30.20,30.14,0,0,6,0.00
2014-5-19,78.0,61.8,47.5,55.5,49.5,41.7,100,69,35,30.25,30.13,1,0,2,0.00
2014-5-20,82.3,67.2,51.9,60.4,53.9,48.5,95,66,34,30.22,30.03,1,0,7,0.00
2014-5-21,84.0,71.6,57.1,63.4,58.5,53.6,92,66,44,30.09,29.96,1,0,4,0.00
2014-5-22,84.6,73.7,64.2,69.7,63.0,57.5,98,71,50,30.07,29.88,1,0,11,0.03
2014-5-23,82.7,71.3,62.8,67.8,62.5,57.3,100,76,49,30.07,29.98,0,0,7,0.09
2014-5-24,83.7,66.9,57.5,59.2,53.1,42.4,94,66,27,30.13,30.03,0,0,2,0.00
2014-5-25,76.2,65.2,54.3,63.6,57.2,49.9,94,76,52,30.13,30.04,0,0,1,0.00
2014-5-26,86.6,71.3,59.1,66.2,61.8,58.3,100,75,44,30.16,30.05,1,0,5,0.00
2014-5-27,85.4,74.7,64.2,68.0,64.1,61.1,92,72,47,30.09,29.94,1,0,10,0.00
2014-5-28,90.2,74.1,63.9,67.0,63.0,57.9,90,71,37,30.02,29.91,0,0,6,0.00
2014-5-29,87.1,71.4,62.8,71.6,65.3,60.9,100,83,46,30.02,29.93,1,0,5,0.52
2014-5-30,67.7,66.6,64.7,67.7,66.6,64.7,100,100,100,30.02,29.98,0,0,0,0.00
2014-5-31,88.9,75.6,64.7,69.1,65.0,57.7,100,74,37,30.08,29.96,0,0,3,0.00
2014-6-1,87.5,75.7,67.8,67.6,62.4,57.5,82,65,45,30.14,30.04,0,0,1,0.00
2014-6-2,86.6,74.1,62.2,65.6,60.6,58.2,89,65,41,30.17,30.01,1,0,2,0.00
2014-6-3,83.3,72.4,63.4,67.5,63.2,59.3,92,74,55,30.09,29.94,0,0,1,0.00
2014-6-4,88.7,74.9,63.4,71.4,64.7,60.8,98,73,43,29.95,29.75,1,0,7,0.76
2014-6-5,76.9,72.2,68.5,71.4,67.9,64.9,99,87,67,29.85,29.70,1,0,9,0.01
2014-6-6,85.6,74.2,65.1,68.7,65.7,62.5,100,77,47,29.93,29.82,0,0,2,0.00
2014-6-7,89.2,75.3,64.1,66.3,63.3,59.5,94,69,38,29.95,29.84,1,0,3,0.00
2014-6-8,83.1,74.7,68.2,68.5,64.5,58.5,95,72,50,29.91,29.78,1,0,4,0.00
2014-6-9,81.5,71.1,60.4,66.1,61.8,57.7,94,74,55,29.91,29.82,1,0,4,0.00
2014-6-10,90.0,72.6,64.4,71.5,66.2,62.8,100,83,48,29.93,29.78,4,0,8,0.10
2014-6-11,85.4,70.4,64.7,72.0,67.3,64.4,100,91,57,29.87,29.74,1,0,3,0.20
2014-6-12,82.5,70.8,65.7,68.7,66.2,63.6,100,87,54,29.88,29.77,0,0,5,0.00
2014-6-13,81.7,68.6,63.1,68.4,65.8,63.0,100,92,56,29.92,29.81,2,0,3,0.68
2014-6-14,85.8,72.5,63.8,68.0,62.2,53.6,100,74,35,30.01,29.92,1,0,3,0.00
2014-6-15,90.0,71.5,60.3,74.5,64.9,58.0,100,82,45,30.11,29.99,1,0,3,0.46
2014-6-16,90.9,77.7,68.8,75.2,69.7,64.0,100,80,42,30.17,30.03,0,0,3,0.06
2014-6-17,92.2,78.9,67.3,69.8,67.0,62.8,97,70,38,30.16,30.02,0,0,3,0.00
2014-6-18,89.8,76.1,67.7,75.5,68.7,64.1,98,79,51,30.11,30.02,1,0,3,0.08
2014-6-19,91.1,74.2,66.5,73.7,69.2,64.6,99,86,45,30.11,30.03,2,0,10,0.04
2014-6-20,91.1,75.9,66.3,70.5,68.6,65.4,100,81,47,30.06,29.91,0,0,4,0.00
2014-6-21,86.4,74.7,69.5,71.0,69.5,65.9,100,86,54,29.95,29.87,1,0,3,0.02
2014-6-22,91.1,76.5,65.9,71.6,66.8,56.3,100,76,31,29.92,29.81,0,0,2,0.00
2014-6-23,92.2,75.0,66.0,70.1,67.0,63.6,99,78,41,29.98,29.85,1,0,3,0.01
2014-6-24,86.2,75.6,68.5,74.4,70.0,66.7,100,84,56,30.01,29.88,0,0,6,0.19
2014-6-25,83.7,73.0,68.7,75.0,69.3,66.9,100,89,61,30.00,29.89,1,0,2,0.49
2014-6-26,88.1,75.6,67.3,70.5,68.0,63.4,100,80,45,30.03,29.89,0,0,1,0.01
2014-6-27,90.2,76.0,69.3,72.8,69.1,65.4,97,81,45,30.05,29.93,0,0,2,0.00
2014-6-28,82.9,73.5,68.8,74.3,70.3,68.5,100,90,70,30.14,30.04,0,0,3,0.11
2014-6-29,87.5,73.1,67.3,74.3,69.3,67.3,100,89,54,30.17,30.05,1,0,5,0.05
2014-6-30,79.7,73.0,66.5,72.4,69.6,66.5,100,90,74,30.07,29.91,0,0,1,0.01
2014-7-1,90.9,79.1,70.0,72.9,70.7,68.3,100,78,51,29.95,29.81,1,0,2,0.00
2014-7-2,94.4,82.1,72.4,71.5,68.4,63.7,93,66,37,29.93,29.83,1,0,1,0.00
2014-7-3,85.8,76.3,70.5,70.1,63.7,54.3,92,67,39,30.03,29.89,1,0,4,0.00
2014-7-4,85.8,71.9,60.3,61.8,55.5,47.4,98,61,27,30.18,30.05,0,0,2,0.00
2014-7-5,89.8,73.0,57.5,62.2,55.8,49.4,95,59,27,30.23,30.09,1,0,3,0.00
2014-7-6,91.1,76.1,62.6,62.9,58.3,52.7,90,58,29,30.12,29.97,1,0,5,0.00
2014-7-7,91.7,77.1,63.6,66.2,61.8,56.8,90,63,31,30.00,29.85,1,0,5,0.00
2014-7-8,86.4,74.8,68.7,70.2,65.6,60.0,100,75,51,29.97,29.85,2,0,11,0.32
2014-7-9,84.0,73.0,67.0,71.7,68.8,66.2,100,88,59,29.99,29.89,1,0,3,0.06
2014-7-10,88.7,75.1,66.3,71.4,67.5,64.2,100,80,49,30.05,29.96,1,0,1,0.01
2014-7-11,92.8,77.5,64.6,69.1,63.5,51.4,100,68,26,30.14,30.04,0,0,1,0.00
2014-7-12,89.6,75.7,68.3,70.0,67.1,64.7,93,76,49,30.15,30.07,1,0,2,0.00
2014-7-13,94.6,79.8,68.7,71.0,68.1,61.1,97,72,34,30.09,29.93,1,0,4,0.00
2014-7-14,93.5,80.9,70.3,72.3,68.3,63.7,96,68,38,29.96,29.79,1,0,6,0.49
2014-7-15,81.7,72.8,67.3,70.8,67.5,59.5,100,85,59,29.87,29.79,1,0,4,0.02
2014-7-16,82.3,69.4,59.2,61.0,56.1,50.6,98,67,35,29.96,29.86,1,0,2,0.00
2014-7-17,86.9,71.0,58.3,60.4,56.5,51.0,95,64,32,30.03,29.95,0,0,2,0.00
2014-7-18,72.6,68.3,65.4,69.7,65.3,59.7,100,90,68,30.10,30.00,0,0,1,0.37
2014-7-19,73.2,68.8,65.5,71.8,68.3,65.5,100,98,89,30.07,29.97,0,0,1,1.06
2014-7-20,85.4,73.8,66.0,71.4,68.3,66.0,100,85,55,30.05,29.93,1,0,1,0.14
2014-7-21,87.7,75.4,68.5,73.4,70.4,67.1,100,86,51,30.07,29.95,0,0,0,0.00
2014-7-22,90.0,77.9,69.5,72.0,69.7,65.1,99,78,46,30.10,29.98,0,0,2,0.00
2014-7-23,86.9,75.2,71.7,76.2,71.3,67.6,100,88,60,30.06,29.89,0,0,1,0.15
2014-7-24,85.2,74.8,68.8,72.8,69.4,63.4,100,84,60,29.96,29.84,1,0,2,0.00
2014-7-25,86.2,72.6,63.0,68.8,64.3,61.8,100,77,49,30.05,29.93,1,0,3,0.00
2014-7-26,88.9,75.6,63.9,68.8,65.7,61.9,100,74,42,30.02,29.90,0,0,3,0.00
2014-7-27,89.8,77.2,67.8,74.0,69.3,66.0,100,78,50,29.98,29.75,1,0,8,1.18
2014-7-28,82.9,72.9,67.2,70.2,64.9,60.3,100,79,49,29.94,29.80,0,0,6,1.18
2014-7-29,79.3,68.0,60.6,62.9,58.9,52.7,100,75,44,30.04,29.91,1,0,5,0.00
2014-7-30,79.1,65.9,54.6,63.5,57.5,51.9,100,77,40,30.08,30.02,0,0,5,0.00
2014-7-31,80.6,68.5,59.7,68.4,62.2,58.4,99,82,52,30.07,30.02,0,0,5,0.00
2014-8-1,86.9,73.9,63.9,67.2,64.8,63.1,100,76,47,30.05,29.95,0,0,5,0.00
2014-8-2,87.1,74.1,67.0,69.9,65.9,62.4,97,77,45,30.07,29.96,0,0,5,0.00
2014-8-3,86.4,73.9,64.9,67.4,64.0,60.5,100,74,43,30.08,29.99,0,0,5,0.00
2014-8-4,87.5,73.1,62.8,65.9,61.9,57.2,98,72,37,30.09,29.97,0,0,5,0.00
2014-8-5,87.7,74.7,64.2,68.2,63.6,56.4,96,71,38,30.05,29.96,0,0,5,0.00
2014-8-6,88.5,73.7,63.9,72.6,65.4,59.8,97,77,45,30.01,29.91,1,0,5,0.01
2014-8-7,84.6,75.1,69.3,72.0,69.1,65.3,100,83,58,30.00,29.91,0,0,5,0.00
2014-8-8,78.5,72.1,68.8,72.4,69.6,66.6,100,92,74,30.04,29.92,0,0,5,0.44
2014-8-9,86.6,75.8,69.7,73.4,71.2,69.2,100,87,61,30.01,29.88,1,0,3,0.01
2014-8-10,81.0,74.1,71.5,75.0,72.7,70.3,100,96,78,29.98,29.88,0,0,2,0.14
2014-8-11,88.5,75.9,69.8,73.9,71.4,69.3,100,87,58,29.96,29.82,1,0,5,0.20
2014-8-12,84.0,72.2,67.7,74.3,69.9,67.7,100,93,62,29.90,29.77,0,0,2,0.29
2014-8-13,79.7,68.3,60.9,68.5,62.4,58.3,100,83,51,30.03,29.89,0,0,5,0.00
2014-8-14,83.9,67.9,57.7,64.5,60.3,55.9,100,80,44,30.06,29.94,0,0,3,0.00
2014-8-15,84.4,71.3,60.8,67.6,62.7,59.4,99,77,44,30.02,29.93,0,0,5,0.00
2014-8-16,83.3,72.0,61.7,68.2,64.0,59.1,100,78,46,30.02,29.95,0,0,3,0.00
2014-8-17,84.2,73.8,66.7,70.0,67.1,64.8,99,81,58,29.98,29.88,0,0,5,0.04
2014-8-18,85.6,73.6,69.3,71.7,69.1,66.6,100,87,55,29.91,29.79,1,0,3,0.09
2014-8-19,87.3,75.2,69.3,71.1,69.2,68.0,97,83,54,29.88,29.79,0,0,5,0.00
2014-8-20,90.6,75.9,67.7,74.0,69.7,66.5,100,83,53,29.99,29.86,0,0,4,0.00
2014-8-21,67.3,67.0,66.7,67.3,67.0,66.7,100,100,100,30.05,30.02,0,0,2,0.01
2014-8-22,92.2,79.4,69.2,74.3,70.8,68.0,100,77,50,30.05,29.92,1,0,2,0.00
2014-8-23,90.4,79.4,72.6,77.8,72.2,69.8,96,80,51,29.96,29.84,0,0,1,0.03
2014-8-24,93.1,79.7,71.4,73.7,70.5,66.9,100,76,43,29.95,29.85,0,0,1,0.00
2014-8-25,90.2,76.7,69.5,68.9,66.1,62.2,88,72,43,30.05,29.95,0,0,1,0.00
2014-8-26,88.9,73.6,62.3,66.6,63.9,61.0,100,75,43,30.12,30.00,0,0,2,0.00
2014-8-27,90.6,74.4,62.3,66.2,63.2,58.6,100,72,35,30.08,29.97,1,0,1,0.00
2014-8-28,94.2,76.9,64.2,70.9,65.6,60.8,96,71,40,30.02,29.91,0,0,1,0.00
2014-8-29,74.3,72.9,71.9,69.8,69.4,69.2,93,89,85,29.97,29.95,0,0,0,0.00
2014-8-30,91.7,75.9,66.7,74.7,68.7,64.0,100,81,42,30.09,29.98,1,0,9,0.27
2014-8-31,84.4,73.7,68.3,73.6,70.8,68.3,100,92,69,30.09,30.01,1,0,9,0.35
2014-9-1,91.7,78.3,70.3,73.1,70.2,66.0,100,79,44,30.07,29.96,1,0,4,0.00
2014-9-2,93.1,78.8,68.5,71.8,68.4,65.3,98,74,41,30.04,29.87,1,0,3,0.00
2014-9-3,87.5,75.0,68.0,72.4,69.9,68.0,100,86,54,30.03,29.94,0,0,3,0.02
2014-9-4,86.4,74.4,69.7,73.2,71.2,69.4,100,91,59,30.10,30.01,0,0,3,0.02
2014-9-5,83.1,74.5,69.5,77.6,71.5,68.6,100,91,70,30.15,30.01,0,0,2,0.40
2014-9-6,71.2,69.6,68.5,70.1,69.1,68.5,100,98,94,30.04,29.99,0,0,0,0.00
2014-9-7,87.1,73.9,67.0,71.9,68.8,67.0,100,86,53,30.02,29.91,0,0,4,0.00
2014-9-8,88.9,74.4,66.7,70.8,68.2,65.8,100,83,49,30.03,29.92,0,0,4,0.00
2014-9-9,87.1,75.3,68.3,71.1,68.4,65.7,96,81,51,30.07,29.95,0,0,4,0.00
2014-9-10,87.7,75.3,68.5,69.6,67.6,62.8,99,80,47,30.03,29.89,1,0,4,0.00
2014-9-11,88.9,73.2,67.0,73.4,68.7,65.8,99,88,52,29.98,29.89,1,0,4,0.00
2014-9-12,84.6,74.8,68.8,73.5,70.8,68.8,100,89,67,30.03,29.93,0,0,3,0.00
2014-9-13,71.0,67.9,63.4,68.9,63.8,56.8,95,87,77,30.17,29.97,0,0,3,0.00
2014-9-14,75.5,66.7,59.1,66.6,61.6,57.0,96,84,68,30.18,30.11,0,0,1,0.00
2014-9-15,78.9,70.0,64.1,69.1,66.6,63.9,100,90,69,30.16,30.06,0,0,2,0.00
2014-9-16,80.8,71.2,66.8,71.6,68.1,65.8,100,91,64,30.08,29.95,0,0,4,0.00
2014-9-17,66.7,63.6,62.0,63.2,61.8,59.7,98,94,82,29.96,29.93,0,0,3,0.00
2014-9-18,78.4,66.4,59.8,62.1,59.1,55.0,100,80,49,29.99,29.89,0,0,3,0.00
2014-9-19,61.7,59.0,56.8,58.8,57.8,56.5,100,96,87,30.02,29.98,0,0,0,0.00
2014-9-20,86.2,70.6,59.5,63.4,60.3,54.3,100,74,35,30.13,29.95,0,0,4,0.00
2014-9-21,80.2,69.2,60.6,69.9,64.3,59.6,100,86,60,29.97,29.84,1,0,4,0.00
2014-9-22,75.2,62.6,53.8,62.1,53.6,44.8,100,76,36,30.11,29.94,0,0,0,0.00
2014-9-23,79.1,61.8,50.1,56.0,52.4,49.0,100,75,35,30.24,30.15,0,0,5,0.00
2014-9-24,80.0,64.1,52.8,56.4,52.9,45.5,100,72,30,30.29,30.18,0,0,4,0.00
2014-9-25,79.3,66.6,56.5,64.1,58.6,52.9,99,77,51,30.24,30.10,1,0,1,0.00
2014-9-26,83.9,69.8,59.1,64.6,61.5,59.1,100,78,44,30.16,30.05,0,0,5,0.00
2014-9-27,82.5,68.6,59.8,64.2,61.8,59.8,100,81,48,30.17,30.07,0,0,5,0.00
2014-9-28,77.1,67.6,58.3,63.8,61.4,57.7,100,82,58,30.14,30.02,0,0,3,0.00
2014-9-29,80.6,69.4,64.7,65.2,62.5,58.5,99,81,48,30.01,29.89,0,0,0,0.00
2014-9-30,83.9,67.7,57.2,64.4,58.9,48.8,100,77,31,29.95,29.84,1,0,3,0.00
2014-10-1,84.4,67.8,55.9,61.8,56.1,45.7,100,71,27,29.99,29.88,0,0,1,0.00
2014-10-2,83.5,68.3,56.2,62.4,58.8,54.9,100,75,46,30.08,29.92,0,0,1,0.00
2014-10-3,72.9,67.0,63.6,68.7,63.2,59.8,100,88,71,29.90,29.75,2,0,11,0.00
2014-10-4,59.8,52.6,44.2,56.9,39.1,30.5,90,62,39,29.95,29.80,1,0,11,0.00
2014-10-5,68.0,51.2,37.1,44.1,36.0,26.8,95,62,27,30.02,29.85,1,0,11,0.00
2014-10-6,66.5,56.4,47.5,61.9,52.1,42.6,100,86,59,29.97,29.86,3,0,11,0.00
2014-10-7,69.3,61.1,55.0,65.2,59.5,55.0,100,95,73,30.02,29.88,1,0,11,0.00
2014-10-8,80.4,68.6,62.8,64.1,59.8,50.6,100,77,36,30.08,29.91,1,0,3,0.00
2014-10-13,83.7,69.2,60.3,66.5,61.8,58.6,100,80,43,30.08,29.84,1,0,10,0.00
2014-10-14,75.5,67.6,56.6,66.4,61.1,53.4,100,82,54,29.82,29.58,1,0,13,0.00
2014-10-15,63.0,56.0,52.4,53.8,51.8,47.1,100,87,57,29.84,29.78,1,0,9,0.00
2014-10-16,59.4,55.0,52.7,53.9,52.4,50.6,100,91,74,29.88,29.76,0,0,5,0.00
2014-10-19,65.7,54.8,50.7,46.3,39.8,42.0,76,51,42,30.20,30.06,1,0,2,0.00
2014-10-25,70.5,51.2,40.4,51.7,42.6,39.4,100,67,44,30.09,29.95,0,0,5,0.00
2014-10-26,77.1,58.2,51.5,58.0,47.4,45.1,100,66,34,30.00,29.93,0,0,5,0.00
2014-10-27,78.5,59.0,49.7,61.8,52.4,47.5,100,75,53,30.08,29.96,0,0,4,0.00
2014-10-28,76.7,60.8,53.5,61.5,53.4,53.5,100,74,51,30.08,29.97,2,0,18,0.00
2014-10-29,65.1,48.8,43.0,57.9,46.1,42.7,100,83,68,30.10,29.95,0,0,6,0.00
2014-10-30,61.5,41.9,39.5,46.7,36.8,38.1,100,72,44,30.10,29.97,0,0,4,0.00
2014-10-31,46.1,39.9,36.1,45.5,38.1,34.6,98,93,90,29.99,29.87,2,0,2,0.00
2014-11-1,38.5,30.0,34.3,35.2,28.0,32.7,100,75,82,30.31,29.92,1,0,4,0.00
2014-11-2,37.9,24.5,30.3,33.5,20.8,26.6,99,58,71,30.45,30.30,0,0,1,0.00
2014-11-6,67.0,49.4,46.0,57.1,39.3,31.2,100,62,39,30.06,29.83,3,1,17,0.00
2014-11-7,50.3,38.9,34.3,37.4,31.5,33.0,95,66,58,30.18,30.04,0,0,7,0.00
2014-11-8,55.6,40.4,33.3,44.4,34.9,32.3,100,73,55,30.05,29.90,0,0,3,0.00
2014-11-9,60.8,42.6,37.8,42.1,36.0,37.3,100,70,45,30.05,29.91,0,0,5,0.00
2014-11-10,65.9,43.6,37.1,44.1,36.0,36.6,100,68,39,30.06,29.92,0,0,4,0.00
2014-11-11,69.7,46.6,37.2,45.9,37.4,36.6,100,65,36,30.03,29.89,0,0,5,0.00
2014-11-12,54.0,46.5,38.7,49.3,42.0,37.2,97,84,76,30.16,29.92,1,0,5,0.00
2014-11-13,38.7,35.7,30.8,38.2,32.4,21.5,100,88,68,30.25,30.12,0,0,3,0.00
2014-11-14,35.4,28.6,24.1,20.9,16.4,14.1,71,60,45,30.38,30.23,0,0,3,0.00
2014-11-15,43.4,30.6,19.9,26.7,19.4,15.5,85,65,39,30.44,30.24,0,0,3,0.00
2014-11-16,43.2,38.7,33.0,40.5,33.2,26.5,100,82,52,30.24,29.86,0,0,3,0.00
2014-11-17,46.1,37.6,24.3,46.1,35.3,11.6,100,92,58,30.17,29.65,2,0,5,0.00
2014-11-18,30.6,25.0,21.5,19.6,10.9,2.3,86,56,31,30.36,30.16,2,0,3,0.00
2014-11-19,48.7,34.7,19.1,22.7,15.7,9.2,72,48,27,30.39,30.11,2,0,6,0.00
2014-11-20,51.8,44.7,36.7,30.1,25.1,20.0,63,46,37,30.23,30.07,2,1,10,0.00
2014-11-21,50.4,37.0,26.5,26.3,20.3,12.3,85,55,22,30.45,30.24,0,0,2,0.00
2014-11-22,56.8,39.0,25.9,31.8,25.6,20.0,86,62,29,30.45,30.15,0,0,2,0.20
2014-11-23,54.1,44.1,36.2,54.1,39.9,30.8,100,85,73,30.15,29.58,0,0,1,0.09
2014-11-24,72.2,63.1,51.3,52.4,46.2,36.9,76,55,38,29.94,29.55,3,1,20,0.00
2014-11-25,57.2,47.8,38.8,37.4,32.1,23.4,82,57,27,30.10,29.95,1,0,4,0.00
2014-11-26,52.1,44.9,39.1,37.3,31.6,24.6,80,61,37,30.04,29.91,2,0,4,0.00
2014-11-27,44.0,36.6,29.0,37.3,30.3,18.7,97,78,58,30.40,29.94,1,0,5,0.18
2014-11-28,41.1,31.7,24.7,25.5,22.6,19.9,91,70,43,30.44,30.22,0,0,4,0.00
2014-11-29,50.1,37.1,25.3,36.7,29.9,23.5,98,77,49,30.26,30.09,0,0,4,0.00
2014-11-30,67.0,52.4,36.1,49.0,43.6,34.0,92,74,49,30.23,30.10,3,0,10,0.00
2014-12-1,66.7,54.3,44.1,55.9,50.1,43.0,99,87,63,30.32,30.23,1,0,4,0.01
2014-12-2,56.9,53.8,50.3,56.9,53.8,50.3,100,100,99,30.25,30.16,0,0,4,0.20
2014-12-3,60.6,53.5,43.0,55.8,50.6,40.2,100,90,73,30.27,30.13,2,0,4,0.01
2014-12-4,55.8,47.0,41.5,48.9,44.3,40.5,100,91,75,30.30,30.21,0,0,4,0.02
2014-12-5,48.8,48.2,47.3,48.5,48.0,47.3,100,99,99,30.27,30.23,0,0,1,0.00
2014-12-6,55.9,50.2,42.5,55.9,49.2,39.7,100,96,83,30.33,30.02,2,0,5,0.57
2014-12-7,49.3,41.6,34.3,39.8,34.5,31.4,95,77,54,30.45,30.28,1,0,7,0.00
2014-12-8,49.1,38.2,32.1,36.9,32.6,28.9,100,82,46,30.35,30.16,0,0,3,0.00
2014-12-9,43.5,38.8,32.7,37.3,35.2,30.7,96,87,76,30.17,30.04,1,0,3,0.01
2014-12-10,40.2,37.6,35.4,34.7,31.1,25.5,88,78,64,30.19,30.13,1,0,3,0.00
2014-12-11,35.5,34.8,33.9,26.8,26.2,25.3,74,70,68,30.14,30.13,0,0,3,0.00
2014-12-12,50.0,33.1,21.5,27.7,22.7,19.8,96,70,32,30.39,30.26,0,0,3,0.00
2014-12-13,47.8,33.3,23.5,33.3,27.1,21.5,95,79,55,30.32,30.20,1,0,3,0.00
2014-12-14,35.8,30.7,25.3,32.4,28.8,24.1,100,93,81,30.25,30.18,0,0,1,0.00
2014-12-15,50.4,35.5,24.4,39.6,30.9,23.4,100,85,53,30.10,29.92,0,0,3,0.01
2014-12-16,51.6,45.1,39.5,48.5,40.9,37.8,100,86,65,30.12,29.88,1,0,11,0.18
2014-12-17,45.6,41.2,30.9,37.6,35.8,29.9,96,81,68,30.22,30.12,0,0,4,0.00
2014-12-18,44.1,37.1,29.3,35.3,31.9,28.8,100,83,61,30.22,30.11,0,0,3,0.00
2014-12-19,47.2,38.6,32.6,32.4,29.2,25.1,90,71,45,30.19,30.12,0,0,3,0.00
2014-12-20,41.1,38.5,36.2,38.1,35.5,32.0,96,89,82,30.23,30.10,0,0,1,0.03
2014-12-21,54.3,43.1,36.9,39.5,37.3,34.9,98,82,52,30.23,30.06,1,0,3,0.00
2014-12-22,62.6,47.5,36.9,47.3,41.6,35.3,96,82,53,30.05,29.76,1,0,2,0.05
2014-12-23,53.5,49.2,44.0,52.4,48.7,44.0,100,98,91,29.88,29.71,0,0,2,0.64
2014-12-24,58.9,52.2,44.4,58.6,50.9,40.2,100,95,81,29.81,29.45,5,0,9,0.14
2014-12-25,49.1,41.5,31.5,40.5,34.7,30.0,95,77,53,30.25,29.81,1,0,3,0.01
2014-12-26,52.1,37.1,27.4,39.0,32.3,27.2,100,85,49,30.36,30.20,0,0,2,0.00
2014-12-27,52.4,44.1,36.1,42.4,37.7,33.5,96,79,57,30.31,30.09,0,0,1,0.00
2014-12-28,49.7,47.4,45.1,49.7,45.9,41.5,100,95,83,30.10,29.99,0,0,1,0.22
2014-12-29,48.5,45.9,40.2,48.5,45.9,40.2,100,100,100,30.16,30.01,0,0,1,0.34
2014-12-30,41.0,38.1,33.6,41.0,36.6,27.8,100,94,79,30.47,30.15,0,0,1,0.04
2014-12-31,37.8,32.2,25.5,29.0,26.3,22.7,93,79,59,30.51,30.40,0,0,2,0.00
2015-1-1,40.0,31.7,22.6,33.2,26.8,21.4,99,83,61,30.40,30.27,0,0,1,0.00
2015-1-2,43.0,40.8,39.0,41.8,37.2,27.2,100,87,60,30.34,30.24,0,0,1,0.02